sensor_id;sensor_type;location;lat;lon;timestamp;temperature;humidity
22491;DHT22;11412;50.802;4.350;2022-10-16T00:00:41;15.30;99.90
22491;DHT22;11412;50.802;4.350;2022-10-16T00:03:07;15.50;99.90
22491;DHT22;11412;50.802;4.350;2022-10-16T00:05:38;15.40;99.90
22491;DHT22;11412;50.802;4.350;2022-10-16T00:08:04;15.40;99.90
22491;DHT22;11412;50.802;4.350;2022-10-16T00:10:30;15.10;99.90
22491;DHT22;11412;50.802;4.350;2022-10-16T00:12:56;15.30;99.90
22491;DHT22;11412;50.802;4.350;2022-10-16T00:15:21;15.50;99.90
22491;DHT22;11412;50.802;4.350;2022-10-16T00:17:47;15.40;99.90
22491;DHT22;11412;50.802;4.350;2022-10-16T00:20:12;15.10;99.90
22491;DHT22;11412;50.802;4.350;2022-10-16T00:22:38;15.30;99.90
22491;DHT22;11412;50.802;4.350;2022-10-16T00:25:04;15.50;99.90
22491;DHT22;11412;50.802;4.350;2022-10-16T00:27:30;15.40;99.90
22491;DHT22;11412;50.802;4.350;2022-10-16T00:29:55;15.40;99.90
22491;DHT22;11412;50.802;4.350;2022-10-16T00:32:21;15.70;99.90
22491;DHT22;11412;50.802;4.350;2022-10-16T00:34:46;15.70;99.90
22491;DHT22;11412;50.802;4.350;2022-10-16T00:37:13;15.70;99.90
22491;DHT22;11412;50.802;4.350;2022-10-16T00:39:38;15.50;99.90
22491;DHT22;11412;50.802;4.350;2022-10-16T00:42:04;15.40;99.90
22491;DHT22;11412;50.802;4.350;2022-10-16T00:44:57;15.50;99.90
22491;DHT22;11412;50.802;4.350;2022-10-16T00:50:08;15.70;99.90
22491;DHT22;11412;50.802;4.350;2022-10-16T00:52:35;15.80;99.90
22491;DHT22;11412;50.802;4.350;2022-10-16T00:55:03;15.70;99.90
22491;DHT22;11412;50.802;4.350;2022-10-16T00:57:30;15.50;99.90
22491;DHT22;11412;50.802;4.350;2022-10-16T00:59:57;15.30;99.90
22491;DHT22;11412;50.802;4.350;2022-10-16T01:02:22;15.30;99.90
22491;DHT22;11412;50.802;4.350;2022-10-16T01:04:51;15.40;99.90
22491;DHT22;11412;50.802;4.350;2022-10-16T01:10:03;15.40;99.90
22491;DHT22;11412;50.802;4.350;2022-10-16T01:12:56;15.30;99.90
22491;DHT22;11412;50.802;4.350;2022-10-16T01:15:27;15.30;99.90
22491;DHT22;11412;50.802;4.350;2022-10-16T01:20:42;15.20;99.90
22491;DHT22;11412;50.802;4.350;2022-10-16T01:28:55;15.00;99.90
22491;DHT22;11412;50.802;4.350;2022-10-16T01:31:25;15.10;99.90
22491;DHT22;11412;50.802;4.350;2022-10-16T01:33:58;14.90;99.90
22491;DHT22;11412;50.802;4.350;2022-10-16T01:36:27;14.70;99.90
22491;DHT22;11412;50.802;4.350;2022-10-16T01:38:54;14.70;99.90
22491;DHT22;11412;50.802;4.350;2022-10-16T01:41:27;14.70;99.90
22491;DHT22;11412;50.802;4.350;2022-10-16T01:44:25;14.60;99.90
22491;DHT22;11412;50.802;4.350;2022-10-16T01:46:50;14.70;99.90
22491;DHT22;11412;50.802;4.350;2022-10-16T01:49:18;14.70;99.90
22491;DHT22;11412;50.802;4.350;2022-10-16T01:51:48;14.80;99.90
22491;DHT22;11412;50.802;4.350;2022-10-16T01:54:17;14.80;99.90
22491;DHT22;11412;50.802;4.350;2022-10-16T01:56:46;14.70;99.90
22491;DHT22;11412;50.802;4.350;2022-10-16T01:59:16;14.80;99.90
22491;DHT22;11412;50.802;4.350;2022-10-16T02:01:49;14.80;99.90
22491;DHT22;11412;50.802;4.350;2022-10-16T02:07:37;14.80;99.90
22491;DHT22;11412;50.802;4.350;2022-10-16T02:10:02;14.90;99.90
22491;DHT22;11412;50.802;4.350;2022-10-16T02:12:31;14.90;99.90
22491;DHT22;11412;50.802;4.350;2022-10-16T02:14:58;15.10;99.90
22491;DHT22;11412;50.802;4.350;2022-10-16T02:17:24;15.00;99.90
22491;DHT22;11412;50.802;4.350;2022-10-16T02:19:53;15.10;99.90
22491;DHT22;11412;50.802;4.350;2022-10-16T02:27:33;15.00;99.90
22491;DHT22;11412;50.802;4.350;2022-10-16T02:30:21;15.00;99.90
22491;DHT22;11412;50.802;4.350;2022-10-16T02:32:49;15.00;99.90
22491;DHT22;11412;50.802;4.350;2022-10-16T02:35:18;15.00;99.90
22491;DHT22;11412;50.802;4.350;2022-10-16T02:37:45;14.80;99.90
22491;DHT22;11412;50.802;4.350;2022-10-16T02:40:12;14.70;99.90
22491;DHT22;11412;50.802;4.350;2022-10-16T02:42:39;14.60;99.90
22491;DHT22;11412;50.802;4.350;2022-10-16T02:45:06;14.90;99.90
22491;DHT22;11412;50.802;4.350;2022-10-16T02:47:32;15.10;99.90
22491;DHT22;11412;50.802;4.350;2022-10-16T02:49:58;15.10;99.90
22491;DHT22;11412;50.802;4.350;2022-10-16T02:52:24;15.00;99.90
22491;DHT22;11412;50.802;4.350;2022-10-16T02:54:50;15.00;99.90
22491;DHT22;11412;50.802;4.350;2022-10-16T02:57:15;14.90;99.90
22491;DHT22;11412;50.802;4.350;2022-10-16T02:59:41;15.10;99.90
22491;DHT22;11412;50.802;4.350;2022-10-16T03:02:07;15.00;99.90
22491;DHT22;11412;50.802;4.350;2022-10-16T03:04:32;15.00;99.90
22491;DHT22;11412;50.802;4.350;2022-10-16T03:06:58;14.80;99.90
22491;DHT22;11412;50.802;4.350;2022-10-16T03:09:24;14.70;99.90
22491;DHT22;11412;50.802;4.350;2022-10-16T03:11:49;14.80;99.90
22491;DHT22;11412;50.802;4.350;2022-10-16T03:14:15;14.80;99.90
22491;DHT22;11412;50.802;4.350;2022-10-16T03:16:41;14.70;99.90
22491;DHT22;11412;50.802;4.350;2022-10-16T03:19:07;14.70;99.90
22491;DHT22;11412;50.802;4.350;2022-10-16T03:21:32;14.70;99.90
22491;DHT22;11412;50.802;4.350;2022-10-16T03:23:58;14.70;99.90
22491;DHT22;11412;50.802;4.350;2022-10-16T03:26:24;14.70;99.90
22491;DHT22;11412;50.802;4.350;2022-10-16T03:28:49;14.70;99.90
22491;DHT22;11412;50.802;4.350;2022-10-16T03:31:15;14.70;99.90
22491;DHT22;11412;50.802;4.350;2022-10-16T03:33:40;14.80;99.90
22491;DHT22;11412;50.802;4.350;2022-10-16T03:36:06;15.00;99.90
22491;DHT22;11412;50.802;4.350;2022-10-16T03:38:32;15.30;99.90
22491;DHT22;11412;50.802;4.350;2022-10-16T03:40:58;15.20;99.90
22491;DHT22;11412;50.802;4.350;2022-10-16T03:43:23;15.00;99.90
22491;DHT22;11412;50.802;4.350;2022-10-16T03:45:52;15.10;99.90
22491;DHT22;11412;50.802;4.350;2022-10-16T03:48:19;15.10;99.90
22491;DHT22;11412;50.802;4.350;2022-10-16T03:50:44;15.00;99.90
22491;DHT22;11412;50.802;4.350;2022-10-16T03:53:11;15.10;99.90
22491;DHT22;11412;50.802;4.350;2022-10-16T03:55:37;15.20;99.90
22491;DHT22;11412;50.802;4.350;2022-10-16T03:58:03;15.10;99.90
22491;DHT22;11412;50.802;4.350;2022-10-16T04:00:28;14.90;99.90
22491;DHT22;11412;50.802;4.350;2022-10-16T04:02:54;14.80;99.90
22491;DHT22;11412;50.802;4.350;2022-10-16T04:05:20;14.60;99.90
22491;DHT22;11412;50.802;4.350;2022-10-16T04:07:46;14.70;99.90
22491;DHT22;11412;50.802;4.350;2022-10-16T04:10:11;14.90;99.90
22491;DHT22;11412;50.802;4.350;2022-10-16T04:12:37;14.80;99.90
22491;DHT22;11412;50.802;4.350;2022-10-16T04:15:03;14.80;99.90
22491;DHT22;11412;50.802;4.350;2022-10-16T04:17:28;14.60;99.90
22491;DHT22;11412;50.802;4.350;2022-10-16T04:19:54;14.80;99.90
22491;DHT22;11412;50.802;4.350;2022-10-16T04:22:19;14.90;99.90
22491;DHT22;11412;50.802;4.350;2022-10-16T04:24:45;14.90;99.90
22491;DHT22;11412;50.802;4.350;2022-10-16T04:27:11;14.90;99.90
22491;DHT22;11412;50.802;4.350;2022-10-16T04:29:36;14.90;99.90
22491;DHT22;11412;50.802;4.350;2022-10-16T04:32:02;14.70;99.90
22491;DHT22;11412;50.802;4.350;2022-10-16T04:34:28;14.90;99.90
22491;DHT22;11412;50.802;4.350;2022-10-16T04:36:53;15.00;99.90
22491;DHT22;11412;50.802;4.350;2022-10-16T04:39:19;14.90;99.90
22491;DHT22;11412;50.802;4.350;2022-10-16T04:41:45;14.90;99.90
22491;DHT22;11412;50.802;4.350;2022-10-16T04:44:10;14.90;99.90
22491;DHT22;11412;50.802;4.350;2022-10-16T04:46:36;14.90;99.90
22491;DHT22;11412;50.802;4.350;2022-10-16T04:49:02;14.70;99.90
22491;DHT22;11412;50.802;4.350;2022-10-16T04:51:27;14.50;99.90
22491;DHT22;11412;50.802;4.350;2022-10-16T04:53:54;14.50;99.90
22491;DHT22;11412;50.802;4.350;2022-10-16T04:56:20;14.50;99.90
22491;DHT22;11412;50.802;4.350;2022-10-16T04:58:47;14.50;99.90
22491;DHT22;11412;50.802;4.350;2022-10-16T05:01:13;14.50;99.90
22491;DHT22;11412;50.802;4.350;2022-10-16T05:03:39;14.60;99.90
22491;DHT22;11412;50.802;4.350;2022-10-16T05:06:07;14.70;99.90
22491;DHT22;11412;50.802;4.350;2022-10-16T05:08:33;14.60;99.90
22491;DHT22;11412;50.802;4.350;2022-10-16T05:10:59;14.70;99.90
22491;DHT22;11412;50.802;4.350;2022-10-16T05:13:25;15.00;99.90
22491;DHT22;11412;50.802;4.350;2022-10-16T05:15:52;15.20;99.90
22491;DHT22;11412;50.802;4.350;2022-10-16T05:18:17;15.00;99.90
22491;DHT22;11412;50.802;4.350;2022-10-16T05:20:43;14.90;99.90
22491;DHT22;11412;50.802;4.350;2022-10-16T05:23:09;15.00;99.90
22491;DHT22;11412;50.802;4.350;2022-10-16T05:25:38;15.00;99.90
22491;DHT22;11412;50.802;4.350;2022-10-16T05:28:03;15.10;99.90
22491;DHT22;11412;50.802;4.350;2022-10-16T05:30:29;15.20;99.90
22491;DHT22;11412;50.802;4.350;2022-10-16T05:32:55;15.20;99.90
22491;DHT22;11412;50.802;4.350;2022-10-16T05:35:21;15.00;99.90
22491;DHT22;11412;50.802;4.350;2022-10-16T05:37:47;14.80;99.90
22491;DHT22;11412;50.802;4.350;2022-10-16T05:40:13;14.80;99.90
22491;DHT22;11412;50.802;4.350;2022-10-16T05:42:39;15.00;99.90
22491;DHT22;11412;50.802;4.350;2022-10-16T05:45:07;14.90;99.90
22491;DHT22;11412;50.802;4.350;2022-10-16T05:47:34;14.50;99.90
22491;DHT22;11412;50.802;4.350;2022-10-16T05:50:00;14.50;99.90
22491;DHT22;11412;50.802;4.350;2022-10-16T05:52:27;14.60;99.90
22491;DHT22;11412;50.802;4.350;2022-10-16T05:54:52;14.50;99.90
22491;DHT22;11412;50.802;4.350;2022-10-16T05:57:18;14.60;99.90
22491;DHT22;11412;50.802;4.350;2022-10-16T05:59:43;14.80;99.90
22491;DHT22;11412;50.802;4.350;2022-10-16T06:02:13;14.70;99.90
22491;DHT22;11412;50.802;4.350;2022-10-16T06:04:39;14.80;99.90
22491;DHT22;11412;50.802;4.350;2022-10-16T06:07:04;14.60;99.90
22491;DHT22;11412;50.802;4.350;2022-10-16T06:09:30;14.90;99.90
22491;DHT22;11412;50.802;4.350;2022-10-16T06:11:56;14.60;99.90
22491;DHT22;11412;50.802;4.350;2022-10-16T06:14:21;14.70;99.90
22491;DHT22;11412;50.802;4.350;2022-10-16T06:16:47;14.70;99.90
22491;DHT22;11412;50.802;4.350;2022-10-16T06:19:13;14.70;99.90
22491;DHT22;11412;50.802;4.350;2022-10-16T06:21:38;14.50;99.90
22491;DHT22;11412;50.802;4.350;2022-10-16T06:24:04;14.50;99.90
22491;DHT22;11412;50.802;4.350;2022-10-16T06:26:30;14.20;99.90
22491;DHT22;11412;50.802;4.350;2022-10-16T06:28:58;14.40;99.90
22491;DHT22;11412;50.802;4.350;2022-10-16T06:31:24;14.40;99.90
22491;DHT22;11412;50.802;4.350;2022-10-16T06:33:56;14.60;99.90
22491;DHT22;11412;50.802;4.350;2022-10-16T06:36:22;14.60;99.90
22491;DHT22;11412;50.802;4.350;2022-10-16T06:38:48;14.60;99.90
22491;DHT22;11412;50.802;4.350;2022-10-16T06:41:16;14.60;99.90
22491;DHT22;11412;50.802;4.350;2022-10-16T06:43:42;14.70;99.90
22491;DHT22;11412;50.802;4.350;2022-10-16T06:46:11;14.60;99.90
22491;DHT22;11412;50.802;4.350;2022-10-16T06:48:37;14.70;99.90
22491;DHT22;11412;50.802;4.350;2022-10-16T06:51:05;14.90;99.90
22491;DHT22;11412;50.802;4.350;2022-10-16T06:53:33;14.90;99.90
22491;DHT22;11412;50.802;4.350;2022-10-16T06:56:14;14.80;99.90
22491;DHT22;11412;50.802;4.350;2022-10-16T06:58:41;14.60;99.90
22491;DHT22;11412;50.802;4.350;2022-10-16T07:01:07;14.60;99.90
22491;DHT22;11412;50.802;4.350;2022-10-16T07:03:36;14.50;99.90
22491;DHT22;11412;50.802;4.350;2022-10-16T07:06:03;14.70;99.90
22491;DHT22;11412;50.802;4.350;2022-10-16T07:08:38;14.90;99.90
22491;DHT22;11412;50.802;4.350;2022-10-16T07:11:06;14.90;99.90
22491;DHT22;11412;50.802;4.350;2022-10-16T07:13:35;15.00;99.90
22491;DHT22;11412;50.802;4.350;2022-10-16T07:16:28;14.90;99.90
22491;DHT22;11412;50.802;4.350;2022-10-16T07:18:55;14.80;99.90
22491;DHT22;11412;50.802;4.350;2022-10-16T07:21:26;14.90;99.90
22491;DHT22;11412;50.802;4.350;2022-10-16T07:23:56;15.00;99.90
22491;DHT22;11412;50.802;4.350;2022-10-16T07:26:23;15.00;99.90
22491;DHT22;11412;50.802;4.350;2022-10-16T07:28:49;15.00;99.90
22491;DHT22;11412;50.802;4.350;2022-10-16T07:31:19;14.90;99.90
22491;DHT22;11412;50.802;4.350;2022-10-16T07:33:45;14.90;99.90
22491;DHT22;11412;50.802;4.350;2022-10-16T07:36:12;15.10;99.90
22491;DHT22;11412;50.802;4.350;2022-10-16T07:38:37;15.10;99.90
22491;DHT22;11412;50.802;4.350;2022-10-16T07:41:06;15.10;99.90
22491;DHT22;11412;50.802;4.350;2022-10-16T07:43:32;15.10;99.90
22491;DHT22;11412;50.802;4.350;2022-10-16T07:45:59;15.00;99.90
22491;DHT22;11412;50.802;4.350;2022-10-16T07:48:27;15.10;99.90
22491;DHT22;11412;50.802;4.350;2022-10-16T07:51:00;15.00;99.90
22491;DHT22;11412;50.802;4.350;2022-10-16T07:53:26;15.30;99.90
22491;DHT22;11412;50.802;4.350;2022-10-16T07:55:52;15.40;99.90
22491;DHT22;11412;50.802;4.350;2022-10-16T07:58:21;15.40;99.90
22491;DHT22;11412;50.802;4.350;2022-10-16T08:00:47;15.40;99.90
22491;DHT22;11412;50.802;4.350;2022-10-16T08:03:14;15.50;99.90
22491;DHT22;11412;50.802;4.350;2022-10-16T08:05:40;15.70;99.90
22491;DHT22;11412;50.802;4.350;2022-10-16T08:08:06;15.80;99.90
22491;DHT22;11412;50.802;4.350;2022-10-16T08:10:32;16.30;99.90
22491;DHT22;11412;50.802;4.350;2022-10-16T08:12:57;16.90;99.90
22491;DHT22;11412;50.802;4.350;2022-10-16T08:15:24;17.30;99.90
22491;DHT22;11412;50.802;4.350;2022-10-16T08:18:01;17.50;99.90
22491;DHT22;11412;50.802;4.350;2022-10-16T08:20:28;17.30;99.90
22491;DHT22;11412;50.802;4.350;2022-10-16T08:22:54;17.30;99.90
22491;DHT22;11412;50.802;4.350;2022-10-16T08:25:24;17.20;99.90
22491;DHT22;11412;50.802;4.350;2022-10-16T08:27:50;17.00;99.90
22491;DHT22;11412;50.802;4.350;2022-10-16T08:30:18;16.90;99.90
22491;DHT22;11412;50.802;4.350;2022-10-16T08:32:44;16.80;99.90
22491;DHT22;11412;50.802;4.350;2022-10-16T08:35:11;16.60;99.90
22491;DHT22;11412;50.802;4.350;2022-10-16T08:37:37;16.50;99.90
22491;DHT22;11412;50.802;4.350;2022-10-16T08:40:11;16.30;99.90
22491;DHT22;11412;50.802;4.350;2022-10-16T08:43:10;16.20;99.90
22491;DHT22;11412;50.802;4.350;2022-10-16T08:48:46;16.30;99.90
22491;DHT22;11412;50.802;4.350;2022-10-16T08:51:24;16.40;99.90
22491;DHT22;11412;50.802;4.350;2022-10-16T08:53:56;16.50;99.90
22491;DHT22;11412;50.802;4.350;2022-10-16T08:56:23;16.40;99.90
22491;DHT22;11412;50.802;4.350;2022-10-16T08:58:49;16.50;99.90
22491;DHT22;11412;50.802;4.350;2022-10-16T09:01:18;16.40;99.90
22491;DHT22;11412;50.802;4.350;2022-10-16T09:09:31;16.80;99.90
22491;DHT22;11412;50.802;4.350;2022-10-16T09:15:21;16.90;99.90
22491;DHT22;11412;50.802;4.350;2022-10-16T09:17:57;17.20;99.90
22491;DHT22;11412;50.802;4.350;2022-10-16T09:20:55;17.10;99.90
22491;DHT22;11412;50.802;4.350;2022-10-16T09:23:28;17.20;99.90
22491;DHT22;11412;50.802;4.350;2022-10-16T09:25:55;17.10;99.90
22491;DHT22;11412;50.802;4.350;2022-10-16T09:28:21;17.30;99.90
22491;DHT22;11412;50.802;4.350;2022-10-16T09:30:47;17.30;99.90
22491;DHT22;11412;50.802;4.350;2022-10-16T09:33:21;17.60;99.90
22491;DHT22;11412;50.802;4.350;2022-10-16T09:35:50;17.70;99.90
22491;DHT22;11412;50.802;4.350;2022-10-16T09:38:32;17.50;99.90
22491;DHT22;11412;50.802;4.350;2022-10-16T09:41:00;17.20;99.90
22491;DHT22;11412;50.802;4.350;2022-10-16T09:46:06;17.50;99.90
22491;DHT22;11412;50.802;4.350;2022-10-16T09:48:49;17.50;99.90
22491;DHT22;11412;50.802;4.350;2022-10-16T09:56:47;17.40;99.90
22491;DHT22;11412;50.802;4.350;2022-10-16T09:59:21;17.50;99.90
22491;DHT22;11412;50.802;4.350;2022-10-16T10:01:51;17.50;99.90
22491;DHT22;11412;50.802;4.350;2022-10-16T10:04:18;17.50;99.90
22491;DHT22;11412;50.802;4.350;2022-10-16T10:06:51;17.40;99.90
22491;DHT22;11412;50.802;4.350;2022-10-16T10:09:24;17.50;99.90
22491;DHT22;11412;50.802;4.350;2022-10-16T10:11:57;17.80;99.90
22491;DHT22;11412;50.802;4.350;2022-10-16T10:17:11;17.80;99.90
22491;DHT22;11412;50.802;4.350;2022-10-16T10:19:50;17.90;99.90
22491;DHT22;11412;50.802;4.350;2022-10-16T10:27:34;18.60;99.90
22491;DHT22;11412;50.802;4.350;2022-10-16T10:30:27;18.70;99.90
22491;DHT22;11412;50.802;4.350;2022-10-16T10:38:24;18.60;99.90
22491;DHT22;11412;50.802;4.350;2022-10-16T10:41:08;18.70;99.90
22491;DHT22;11412;50.802;4.350;2022-10-16T10:46:48;19.20;99.90
22491;DHT22;11412;50.802;4.350;2022-10-16T10:52:07;19.00;99.90
22491;DHT22;11412;50.802;4.350;2022-10-16T10:57:33;19.20;99.90
22491;DHT22;11412;50.802;4.350;2022-10-16T11:00:12;19.10;99.90
22491;DHT22;11412;50.802;4.350;2022-10-16T11:02:58;19.40;99.90
22491;DHT22;11412;50.802;4.350;2022-10-16T11:05:35;19.80;99.90
22491;DHT22;11412;50.802;4.350;2022-10-16T11:08:17;19.60;99.90
22491;DHT22;11412;50.802;4.350;2022-10-16T11:11:05;19.50;99.90
22491;DHT22;11412;50.802;4.350;2022-10-16T11:13:39;19.50;99.90
22491;DHT22;11412;50.802;4.350;2022-10-16T11:16:38;19.60;99.90
22491;DHT22;11412;50.802;4.350;2022-10-16T11:19:13;19.90;99.90
22491;DHT22;11412;50.802;4.350;2022-10-16T11:21:46;19.90;99.90
22491;DHT22;11412;50.802;4.350;2022-10-16T11:24:41;19.90;99.90
22491;DHT22;11412;50.802;4.350;2022-10-16T11:27:14;19.60;99.90
22491;DHT22;11412;50.802;4.350;2022-10-16T11:29:53;19.50;99.90
22491;DHT22;11412;50.802;4.350;2022-10-16T11:35:39;19.60;99.90
22491;DHT22;11412;50.802;4.350;2022-10-16T11:38:15;19.70;99.90
22491;DHT22;11412;50.802;4.350;2022-10-16T11:40:46;20.10;99.90
22491;DHT22;11412;50.802;4.350;2022-10-16T11:43:24;20.10;99.90
22491;DHT22;11412;50.802;4.350;2022-10-16T11:45:54;20.10;99.90
22491;DHT22;11412;50.802;4.350;2022-10-16T11:48:38;20.10;99.90
22491;DHT22;11412;50.802;4.350;2022-10-16T11:53:57;19.80;99.90
22491;DHT22;11412;50.802;4.350;2022-10-16T11:56:24;19.30;99.90
22491;DHT22;11412;50.802;4.350;2022-10-16T11:59:07;19.30;99.90
22491;DHT22;11412;50.802;4.350;2022-10-16T12:01:58;19.30;99.90
22491;DHT22;11412;50.802;4.350;2022-10-16T12:04:42;19.30;99.90
22491;DHT22;11412;50.802;4.350;2022-10-16T12:07:23;19.50;99.90
22491;DHT22;11412;50.802;4.350;2022-10-16T12:09:52;19.70;99.90
22491;DHT22;11412;50.802;4.350;2022-10-16T12:15:03;20.20;99.90
22491;DHT22;11412;50.802;4.350;2022-10-16T12:17:37;20.40;99.90
22491;DHT22;11412;50.802;4.350;2022-10-16T12:25:38;20.00;99.90
22491;DHT22;11412;50.802;4.350;2022-10-16T12:30:41;20.60;99.90
22491;DHT22;11412;50.802;4.350;2022-10-16T12:33:25;20.90;99.90
22491;DHT22;11412;50.802;4.350;2022-10-16T12:35:52;20.90;99.90
22491;DHT22;11412;50.802;4.350;2022-10-16T12:41:11;20.90;99.90
22491;DHT22;11412;50.802;4.350;2022-10-16T12:43:39;20.40;99.90
22491;DHT22;11412;50.802;4.350;2022-10-16T12:46:19;20.50;99.90
22491;DHT22;11412;50.802;4.350;2022-10-16T12:48:45;20.50;99.90
22491;DHT22;11412;50.802;4.350;2022-10-16T12:51:35;20.10;99.90
22491;DHT22;11412;50.802;4.350;2022-10-16T12:54:19;20.00;99.90
22491;DHT22;11412;50.802;4.350;2022-10-16T13:08:38;19.60;99.90
22491;DHT22;11412;50.802;4.350;2022-10-16T13:17:32;19.60;99.90
22491;DHT22;11412;50.802;4.350;2022-10-16T13:19:38;19.60;99.90
22491;DHT22;11412;50.802;4.350;2022-10-16T13:22:31;19.80;99.90
22491;DHT22;11412;50.802;4.350;2022-10-16T13:25:09;19.80;99.90
22491;DHT22;11412;50.802;4.350;2022-10-16T13:28:14;19.80;99.90
22491;DHT22;11412;50.802;4.350;2022-10-16T13:30:54;19.70;99.90
22491;DHT22;11412;50.802;4.350;2022-10-16T13:33:41;19.80;99.90
22491;DHT22;11412;50.802;4.350;2022-10-16T13:36:22;20.00;99.90
22491;DHT22;11412;50.802;4.350;2022-10-16T13:38:48;20.30;99.90
22491;DHT22;11412;50.802;4.350;2022-10-16T13:41:18;20.30;99.90
22491;DHT22;11412;50.802;4.350;2022-10-16T13:43:49;20.30;99.90
22491;DHT22;11412;50.802;4.350;2022-10-16T13:46:23;20.20;99.90
22491;DHT22;11412;50.802;4.350;2022-10-16T13:49:03;20.00;99.90
22491;DHT22;11412;50.802;4.350;2022-10-16T13:51:30;19.80;99.90
22491;DHT22;11412;50.802;4.350;2022-10-16T13:53:56;19.70;99.90
22491;DHT22;11412;50.802;4.350;2022-10-16T13:56:25;19.80;99.90
22491;DHT22;11412;50.802;4.350;2022-10-16T13:59:00;19.80;99.90
22491;DHT22;11412;50.802;4.350;2022-10-16T14:01:32;19.80;99.90
22491;DHT22;11412;50.802;4.350;2022-10-16T14:04:05;19.60;99.90
22491;DHT22;11412;50.802;4.350;2022-10-16T14:06:32;19.60;99.90
22491;DHT22;11412;50.802;4.350;2022-10-16T14:09:02;19.50;99.90
22491;DHT22;11412;50.802;4.350;2022-10-16T14:11:30;19.40;99.90
22491;DHT22;11412;50.802;4.350;2022-10-16T14:13:56;19.20;99.90
22491;DHT22;11412;50.802;4.350;2022-10-16T14:16:27;19.30;99.90
22491;DHT22;11412;50.802;4.350;2022-10-16T14:18:59;19.30;99.90
22491;DHT22;11412;50.802;4.350;2022-10-16T14:21:26;19.20;99.90
22491;DHT22;11412;50.802;4.350;2022-10-16T14:23:52;19.20;99.90
22491;DHT22;11412;50.802;4.350;2022-10-16T14:26:25;19.10;99.90
22491;DHT22;11412;50.802;4.350;2022-10-16T14:29:14;19.20;99.90
22491;DHT22;11412;50.802;4.350;2022-10-16T14:31:40;19.30;99.90
22491;DHT22;11412;50.802;4.350;2022-10-16T14:36:53;19.40;99.90
22491;DHT22;11412;50.802;4.350;2022-10-16T14:39:23;19.50;99.90
22491;DHT22;11412;50.802;4.350;2022-10-16T14:41:51;19.50;99.90
22491;DHT22;11412;50.802;4.350;2022-10-16T14:44:25;19.40;99.90
22491;DHT22;11412;50.802;4.350;2022-10-16T14:46:52;19.50;99.90
22491;DHT22;11412;50.802;4.350;2022-10-16T14:49:19;19.50;99.90
22491;DHT22;11412;50.802;4.350;2022-10-16T14:51:46;19.30;99.90
22491;DHT22;11412;50.802;4.350;2022-10-16T14:54:13;19.50;99.90
22491;DHT22;11412;50.802;4.350;2022-10-16T14:56:54;19.50;99.90
22491;DHT22;11412;50.802;4.350;2022-10-16T14:59:34;19.50;99.90
22491;DHT22;11412;50.802;4.350;2022-10-16T15:02:12;19.20;99.90
22491;DHT22;11412;50.802;4.350;2022-10-16T15:04:41;19.10;99.90
22491;DHT22;11412;50.802;4.350;2022-10-16T15:07:07;19.00;99.90
22491;DHT22;11412;50.802;4.350;2022-10-16T15:09:33;18.90;99.90
22491;DHT22;11412;50.802;4.350;2022-10-16T15:11:58;18.80;99.90
22491;DHT22;11412;50.802;4.350;2022-10-16T15:14:24;18.80;99.90
22491;DHT22;11412;50.802;4.350;2022-10-16T15:16:50;18.70;99.90
22491;DHT22;11412;50.802;4.350;2022-10-16T15:19:15;18.80;99.90
22491;DHT22;11412;50.802;4.350;2022-10-16T15:21:41;18.80;99.90
22491;DHT22;11412;50.802;4.350;2022-10-16T15:24:12;18.90;99.90
22491;DHT22;11412;50.802;4.350;2022-10-16T15:26:38;18.90;99.90
22491;DHT22;11412;50.802;4.350;2022-10-16T15:29:04;18.90;99.90
22491;DHT22;11412;50.802;4.350;2022-10-16T15:31:30;18.90;99.90
22491;DHT22;11412;50.802;4.350;2022-10-16T15:33:56;18.80;99.90
22491;DHT22;11412;50.802;4.350;2022-10-16T15:36:37;18.70;99.90
22491;DHT22;11412;50.802;4.350;2022-10-16T15:39:04;18.50;99.90
22491;DHT22;11412;50.802;4.350;2022-10-16T15:41:30;18.40;99.90
22491;DHT22;11412;50.802;4.350;2022-10-16T15:43:56;18.30;99.90
22491;DHT22;11412;50.802;4.350;2022-10-16T15:46:23;18.10;99.90
22491;DHT22;11412;50.802;4.350;2022-10-16T15:48:50;18.10;99.90
22491;DHT22;11412;50.802;4.350;2022-10-16T15:51:17;18.10;99.90
22491;DHT22;11412;50.802;4.350;2022-10-16T15:53:43;18.00;99.90
22491;DHT22;11412;50.802;4.350;2022-10-16T15:56:11;17.90;99.90
22491;DHT22;11412;50.802;4.350;2022-10-16T15:58:38;17.90;99.90
22491;DHT22;11412;50.802;4.350;2022-10-16T16:01:03;17.90;99.90
22491;DHT22;11412;50.802;4.350;2022-10-16T16:03:30;17.90;99.90
22491;DHT22;11412;50.802;4.350;2022-10-16T16:05:56;17.70;99.90
22491;DHT22;11412;50.802;4.350;2022-10-16T16:08:22;17.80;99.90
22491;DHT22;11412;50.802;4.350;2022-10-16T16:11:18;17.80;99.90
22491;DHT22;11412;50.802;4.350;2022-10-16T16:13:43;17.80;99.90
22491;DHT22;11412;50.802;4.350;2022-10-16T16:16:11;17.60;99.90
22491;DHT22;11412;50.802;4.350;2022-10-16T16:18:37;17.70;99.90
22491;DHT22;11412;50.802;4.350;2022-10-16T16:21:04;17.70;99.90
22491;DHT22;11412;50.802;4.350;2022-10-16T16:23:29;17.60;99.90
22491;DHT22;11412;50.802;4.350;2022-10-16T16:26:12;17.50;99.90
22491;DHT22;11412;50.802;4.350;2022-10-16T16:28:39;17.50;99.90
22491;DHT22;11412;50.802;4.350;2022-10-16T16:31:05;17.40;99.90
22491;DHT22;11412;50.802;4.350;2022-10-16T16:33:31;17.40;99.90
22491;DHT22;11412;50.802;4.350;2022-10-16T16:35:58;17.40;99.90
22491;DHT22;11412;50.802;4.350;2022-10-16T16:38:24;17.40;99.90
22491;DHT22;11412;50.802;4.350;2022-10-16T16:40:50;17.30;99.90
22491;DHT22;11412;50.802;4.350;2022-10-16T16:43:17;17.30;99.90
22491;DHT22;11412;50.802;4.350;2022-10-16T16:45:43;17.10;99.90
22491;DHT22;11412;50.802;4.350;2022-10-16T16:48:09;17.10;99.90
22491;DHT22;11412;50.802;4.350;2022-10-16T16:50:37;17.00;99.90
22491;DHT22;11412;50.802;4.350;2022-10-16T16:53:03;17.00;99.90
22491;DHT22;11412;50.802;4.350;2022-10-16T16:55:29;17.10;99.90
22491;DHT22;11412;50.802;4.350;2022-10-16T16:58:00;17.00;99.90
22491;DHT22;11412;50.802;4.350;2022-10-16T17:00:28;16.90;99.90
22491;DHT22;11412;50.802;4.350;2022-10-16T17:02:54;17.10;99.90
22491;DHT22;11412;50.802;4.350;2022-10-16T17:05:19;17.10;99.90
22491;DHT22;11412;50.802;4.350;2022-10-16T17:07:45;17.00;99.90
22491;DHT22;11412;50.802;4.350;2022-10-16T17:10:11;17.10;99.90
22491;DHT22;11412;50.802;4.350;2022-10-16T17:12:36;17.00;99.90
22491;DHT22;11412;50.802;4.350;2022-10-16T17:15:02;16.80;99.90
22491;DHT22;11412;50.802;4.350;2022-10-16T17:17:29;16.80;99.90
22491;DHT22;11412;50.802;4.350;2022-10-16T17:19:55;16.60;99.90
22491;DHT22;11412;50.802;4.350;2022-10-16T17:22:21;16.60;99.90
22491;DHT22;11412;50.802;4.350;2022-10-16T17:24:49;16.50;99.90
22491;DHT22;11412;50.802;4.350;2022-10-16T17:27:17;16.40;99.90
22491;DHT22;11412;50.802;4.350;2022-10-16T17:29:43;16.40;99.90